createdAt,value
2023-01-04T00:01:13.223Z,7.10
2023-01-04T00:03:16.583Z,6.93
2023-01-04T00:05:20.823Z,6.70
2023-01-04T00:07:23.763Z,6.18
2023-01-04T00:09:26.569Z,7.65
2023-01-04T00:11:29.381Z,7.40
2023-01-04T00:13:32.618Z,6.57
2023-01-04T00:15:38.461Z,6.93
2023-01-04T00:17:41.326Z,7.30
2023-01-04T00:19:44.100Z,6.18
2023-01-04T00:21:48.360Z,7.07
2023-01-04T00:23:54.002Z,6.75
2023-01-04T00:25:56.824Z,6.47
2023-01-04T00:27:59.635Z,7.53
2023-01-04T00:30:02.657Z,7.18
2023-01-04T00:32:05.721Z,5.93
2023-01-04T00:34:08.576Z,6.85
2023-01-04T00:36:13.785Z,7.28
2023-01-04T00:38:17.859Z,6.43
2023-01-04T00:40:20.645Z,6.82
2023-01-04T00:42:23.436Z,6.82
2023-01-04T00:44:26.294Z,6.70
2023-01-04T00:46:29.317Z,7.10
2023-01-04T00:48:34.419Z,6.95
2023-01-04T00:50:40.636Z,6.43
2023-01-04T00:52:43.402Z,6.53
2023-01-04T00:54:47.542Z,7.80
2023-01-04T00:56:50.595Z,6.28
2023-01-04T00:58:55.739Z,8.35
2023-01-04T01:01:05.188Z,7.38
2023-01-04T01:03:08.921Z,7.43
2023-01-04T01:05:12.027Z,9.00
2023-01-04T01:07:14.854Z,8.40
2023-01-04T01:09:18.483Z,8.68
2023-01-04T01:11:22.915Z,8.25
2023-01-04T01:13:25.730Z,8.88
2023-01-04T01:15:28.660Z,8.70
2023-01-04T01:17:31.563Z,9.13
2023-01-04T01:19:34.658Z,9.45
2023-01-04T01:21:37.815Z,9.38
2023-01-04T01:23:41.280Z,11.20
2023-01-04T01:25:44.090Z,9.70
2023-01-04T01:27:48.300Z,11.25
2023-01-04T01:29:51.090Z,10.95
2023-01-04T01:31:54.393Z,12.10
2023-01-04T01:33:58.404Z,10.30
2023-01-04T01:36:01.909Z,13.20
2023-01-04T01:38:04.689Z,11.05
2023-01-04T01:40:08.648Z,11.43
2023-01-04T01:42:19.860Z,11.85
2023-01-04T01:44:57.966Z,13.07
2023-01-04T01:47:01.393Z,13.23
2023-01-04T01:49:11.238Z,13.23
2023-01-04T01:51:17.805Z,13.65
2023-01-04T01:53:21.667Z,11.60
2023-01-04T01:55:25.200Z,13.00
2023-01-04T01:57:30.491Z,11.32
2023-01-04T01:59:35.318Z,11.60
2023-01-04T02:01:39.643Z,12.75
2023-01-04T02:03:44.292Z,13.32
2023-01-04T02:05:50.980Z,13.07
2023-01-04T02:07:54.555Z,11.85
2023-01-04T02:09:58.582Z,12.07
2023-01-04T02:12:01.985Z,12.57
2023-01-04T02:14:24.046Z,12.80
2023-01-04T02:16:38.208Z,11.95
2023-01-04T02:18:49.393Z,12.38
2023-01-04T02:20:56.333Z,11.02
2023-01-04T02:23:33.805Z,11.95
2023-01-04T02:26:03.723Z,10.48
2023-01-04T02:28:17.579Z,10.63
2023-01-04T02:31:09.448Z,12.85
2023-01-04T02:33:32.558Z,12.05
2023-01-04T02:35:44.360Z,10.60
2023-01-04T02:37:53.167Z,10.05
2023-01-04T02:40:04.290Z,11.50
2023-01-04T02:42:14.047Z,12.23
2023-01-04T02:44:37.000Z,10.90
2023-01-04T02:46:45.562Z,10.82
2023-01-04T02:49:07.486Z,9.57
2023-01-04T02:51:29.183Z,11.77
2023-01-04T02:53:36.748Z,10.45
2023-01-04T02:55:52.667Z,9.60
2023-01-04T02:58:04.607Z,10.48
2023-01-04T03:00:28.919Z,10.50
2023-01-04T03:03:04.070Z,11.02
2023-01-04T03:05:33.959Z,10.80
2023-01-04T03:07:42.050Z,11.40
2023-01-04T03:09:50.223Z,10.88
2023-01-04T03:12:16.034Z,11.90
2023-01-04T03:14:31.552Z,10.52
2023-01-04T03:16:39.178Z,10.38
2023-01-04T03:18:45.568Z,10.05
2023-01-04T03:20:51.595Z,10.27
2023-01-04T03:23:16.293Z,9.52
2023-01-04T03:25:40.948Z,11.18
2023-01-04T03:28:05.117Z,9.68
2023-01-04T03:30:29.310Z,9.02
2023-01-04T03:32:58.623Z,10.30
2023-01-04T03:35:19.441Z,8.63
2023-01-04T03:37:27.993Z,7.75
2023-01-04T03:40:00.354Z,7.03
2023-01-04T03:42:29.737Z,8.95
2023-01-04T03:44:56.141Z,8.32
2023-01-04T03:47:25.375Z,8.25
2023-01-04T03:49:34.619Z,8.55
2023-01-04T03:51:39.287Z,8.80
2023-01-04T03:53:51.641Z,7.57
2023-01-04T03:55:56.629Z,8.38
2023-01-04T04:00:08.848Z,7.20
2023-01-04T04:02:14.030Z,7.85
2023-01-04T04:04:34.299Z,6.75
2023-01-04T04:06:54.678Z,6.88
2023-01-04T04:08:58.887Z,6.00
2023-01-04T04:11:24.383Z,5.85
2023-01-04T04:13:27.205Z,6.43
2023-01-04T04:15:29.962Z,5.93
2023-01-04T04:17:32.694Z,5.75
2023-01-04T04:19:35.471Z,5.18
2023-01-04T04:21:38.453Z,6.07
2023-01-04T04:23:41.491Z,4.90
2023-01-04T04:25:46.481Z,5.65
2023-01-04T04:29:52.202Z,5.80
2023-01-04T04:31:55.055Z,6.00
2023-01-04T04:33:57.950Z,5.97
2023-01-04T04:36:00.922Z,5.75
2023-01-04T04:38:03.948Z,6.65
2023-01-04T04:40:08.248Z,7.40
2023-01-04T04:42:11.474Z,7.38
2023-01-04T04:44:17.680Z,7.20
2023-01-04T04:46:20.606Z,8.27
2023-01-04T04:48:23.532Z,7.95
2023-01-04T04:50:26.790Z,8.25
2023-01-04T04:52:29.713Z,8.60
2023-01-04T04:54:32.461Z,9.20
2023-01-04T04:56:36.868Z,9.93
2023-01-04T04:58:41.415Z,9.23
2023-01-04T05:00:44.195Z,9.75
2023-01-04T05:02:47.152Z,9.02
2023-01-04T05:04:49.993Z,10.35
2023-01-04T05:06:53.101Z,11.15
2023-01-04T05:08:55.945Z,11.57
2023-01-04T05:10:58.853Z,11.65
2023-01-04T05:13:00.660Z,11.05
2023-01-04T05:15:05.237Z,13.65
2023-01-04T05:17:08.142Z,12.20
2023-01-04T05:19:10.919Z,12.75
2023-01-04T05:21:19.858Z,11.32
2023-01-04T05:23:23.269Z,13.25
2023-01-04T05:25:26.270Z,12.43
2023-01-04T05:27:29.107Z,12.60
2023-01-04T05:29:57.799Z,13.27
2023-01-04T05:32:02.025Z,12.57
2023-01-04T05:34:04.806Z,13.25
2023-01-04T05:36:08.074Z,12.27
2023-01-04T05:38:10.861Z,12.25
2023-01-04T05:40:13.650Z,13.30
2023-01-04T05:42:28.847Z,13.63
2023-01-04T05:44:31.693Z,14.18
2023-01-04T05:46:34.645Z,13.95
2023-01-04T05:48:38.808Z,13.85
2023-01-04T05:50:41.712Z,15.20
2023-01-04T05:52:46.455Z,13.85
2023-01-04T05:54:49.390Z,13.80
2023-01-04T05:56:52.210Z,13.20
2023-01-04T05:58:55.073Z,14.43
2023-01-04T06:00:57.916Z,14.38
2023-01-04T06:03:00.787Z,13.52
2023-01-04T06:05:06.243Z,14.40
2023-01-04T06:07:08.965Z,12.93
2023-01-04T06:09:11.739Z,14.32
2023-01-04T06:11:14.546Z,12.65
2023-01-04T06:13:17.334Z,14.80
2023-01-04T06:15:20.193Z,14.23
2023-01-04T06:17:22.977Z,13.70
2023-01-04T06:19:26.297Z,13.13
2023-01-04T06:21:30.568Z,12.90
2023-01-04T06:23:33.417Z,11.95
2023-01-04T06:25:36.328Z,15.13
2023-01-04T06:27:39.198Z,13.30
2023-01-04T06:29:41.976Z,14.38
2023-01-04T06:31:44.817Z,12.88
2023-01-04T06:33:50.548Z,13.40
2023-01-04T06:35:56.310Z,12.77
2023-01-04T06:38:00.508Z,13.02
2023-01-04T06:40:03.379Z,11.80
2023-01-04T06:42:07.353Z,10.48
2023-01-04T06:44:10.381Z,12.48
2023-01-04T06:46:13.216Z,11.95
2023-01-04T06:48:18.104Z,11.00
2023-01-04T06:50:21.427Z,11.68
2023-01-04T06:52:24.317Z,11.90
2023-01-04T06:54:29.631Z,11.25
2023-01-04T06:56:33.558Z,11.32
2023-01-04T06:58:36.491Z,12.20
2023-01-04T07:00:39.280Z,10.32
2023-01-04T07:03:12.459Z,11.07
2023-01-04T07:05:05.488Z,10.27
2023-01-04T07:07:08.361Z,11.25
2023-01-04T07:09:11.233Z,10.32
2023-01-04T07:11:15.345Z,9.85
2023-01-04T07:13:18.169Z,8.77
2023-01-04T07:15:39.690Z,10.52
2023-01-04T07:17:43.353Z,8.70
2023-01-04T07:19:46.194Z,9.50
2023-01-04T07:21:49.205Z,8.75
2023-01-04T07:23:51.993Z,9.15
2023-01-04T07:25:54.869Z,8.30
2023-01-04T07:27:59.043Z,8.10
2023-01-04T07:30:01.972Z,8.52
2023-01-04T07:32:10.202Z,6.93
2023-01-04T07:34:18.185Z,8.50
2023-01-04T07:36:20.941Z,7.95
2023-01-04T07:38:24.079Z,7.28
2023-01-04T07:40:27.941Z,7.93
2023-01-04T07:42:31.256Z,7.90
2023-01-04T07:44:35.426Z,7.13
2023-01-04T07:46:39.072Z,7.30
2023-01-04T07:48:41.939Z,7.25
2023-01-04T07:50:46.309Z,6.32
2023-01-04T07:52:49.153Z,6.25
2023-01-04T07:54:51.945Z,6.50
2023-01-04T07:56:54.885Z,5.90
2023-01-04T07:58:59.329Z,5.18
2023-01-04T08:01:09.157Z,4.90
2023-01-04T08:03:12.053Z,5.72
2023-01-04T08:05:14.992Z,5.30
2023-01-04T08:07:17.777Z,4.35
2023-01-04T08:09:20.761Z,4.70
2023-01-04T08:11:24.502Z,5.25
2023-01-04T08:13:27.259Z,4.85
2023-01-04T08:15:30.294Z,4.60
2023-01-04T08:17:34.483Z,5.20
2023-01-04T08:19:37.551Z,5.70
2023-01-04T08:21:41.000Z,5.18
2023-01-04T08:23:43.946Z,5.70
2023-01-04T08:25:46.935Z,4.30
2023-01-04T08:27:49.879Z,7.10
2023-01-04T08:29:52.759Z,5.07
2023-01-04T08:31:55.698Z,4.28
2023-01-04T08:34:02.766Z,4.20
2023-01-04T08:36:10.414Z,5.13
2023-01-04T08:38:56.106Z,4.57
2023-01-04T08:40:58.855Z,3.85
2023-01-04T08:42:59.839Z,4.07
2023-01-04T08:45:02.716Z,4.05
2023-01-04T08:47:05.733Z,3.70
2023-01-04T08:49:10.249Z,3.35
2023-01-04T08:51:15.703Z,3.58
2023-01-04T08:53:18.703Z,3.00
2023-01-04T08:55:23.556Z,2.72
2023-01-04T08:57:26.786Z,3.25
2023-01-04T08:59:33.273Z,2.95
2023-01-04T09:01:36.799Z,3.20
2023-01-04T09:03:39.972Z,2.90
2023-01-04T09:05:48.704Z,2.90
2023-01-04T09:07:52.058Z,2.55
2023-01-04T09:09:54.892Z,2.80
2023-01-04T09:11:59.563Z,3.13
2023-01-04T09:14:07.906Z,3.03
2023-01-04T09:16:13.113Z,3.22
2023-01-04T09:18:32.900Z,2.92
2023-01-04T09:20:36.093Z,2.47
2023-01-04T09:22:40.180Z,2.90
2023-01-04T09:24:42.939Z,2.58
2023-01-04T09:26:47.336Z,2.67
2023-01-04T09:28:50.995Z,2.78
2023-01-04T09:30:53.852Z,2.30
2023-01-04T09:32:56.696Z,2.38
2023-01-04T09:34:59.524Z,2.70
2023-01-04T09:37:02.343Z,2.03
2023-01-04T09:39:06.652Z,2.00
2023-01-04T09:41:19.801Z,1.92
2023-01-04T09:43:25.371Z,2.55
2023-01-04T09:45:29.532Z,2.10
2023-01-04T09:47:39.774Z,2.10
2023-01-04T09:49:46.649Z,2.53
2023-01-04T09:51:58.134Z,2.38
2023-01-04T09:54:06.868Z,2.05
2023-01-04T09:56:19.420Z,1.80
2023-01-04T09:58:27.941Z,2.08
2023-01-04T10:00:41.807Z,1.95
2023-01-04T10:02:50.871Z,1.98
2023-01-04T10:04:53.783Z,1.95
2023-01-04T10:07:02.742Z,1.80
2023-01-04T10:09:13.045Z,1.77
2023-01-04T10:11:36.949Z,1.30
2023-01-04T10:14:02.392Z,1.77
2023-01-04T10:16:17.630Z,1.75
2023-01-04T10:21:34.177Z,1.85
2023-01-04T10:23:53.368Z,2.03
2023-01-04T10:25:58.368Z,1.50
2023-01-04T10:28:15.771Z,1.92
2023-01-04T10:30:31.187Z,1.83
2023-01-04T10:34:42.914Z,1.35
2023-01-04T10:36:47.538Z,1.80
2023-01-04T10:38:56.471Z,1.65
2023-01-04T10:41:03.743Z,2.22
2023-01-04T10:43:17.681Z,2.40
2023-01-04T10:45:27.304Z,1.50
2023-01-04T10:47:36.971Z,1.60
2023-01-04T10:49:44.649Z,2.00
2023-01-04T10:51:52.038Z,1.50
2023-01-04T10:53:58.744Z,1.20
2023-01-04T10:56:25.349Z,1.58
2023-01-04T10:58:39.222Z,1.83
2023-01-04T11:00:45.931Z,1.70
2023-01-04T11:02:53.174Z,1.55
2023-01-04T11:05:01.804Z,1.55
2023-01-04T11:07:11.362Z,1.50
2023-01-04T11:09:25.052Z,1.65
2023-01-04T11:11:33.945Z,1.35
2023-01-04T11:13:38.677Z,1.48
2023-01-04T11:15:42.688Z,2.05
2023-01-04T11:17:46.396Z,1.60
2023-01-04T11:19:50.093Z,1.50
2023-01-04T11:21:59.054Z,1.75
2023-01-04T11:24:30.806Z,1.52
2023-01-04T11:26:35.965Z,1.50
2023-01-04T11:28:45.397Z,1.60
2023-01-04T11:30:55.307Z,1.70
2023-01-04T11:33:03.983Z,1.80
2023-01-04T11:35:07.343Z,1.73
2023-01-04T11:37:25.282Z,1.80
2023-01-04T11:39:28.204Z,1.52
2023-01-04T11:41:31.112Z,1.33
2023-01-04T11:43:35.876Z,1.52
2023-01-04T11:45:40.222Z,1.98
2023-01-04T11:47:49.592Z,1.45
2023-01-04T11:49:53.089Z,1.38
2023-01-04T11:51:55.902Z,1.25
2023-01-04T11:54:00.469Z,1.83
2023-01-04T11:56:16.167Z,2.08
2023-01-04T11:58:20.990Z,1.40
2023-01-04T12:02:59.374Z,1.80
2023-01-04T12:04:53.389Z,1.83
2023-01-04T12:06:59.398Z,1.50
2023-01-04T12:09:02.373Z,1.42
2023-01-04T12:11:07.047Z,1.70
2023-01-04T12:13:11.257Z,1.67
2023-01-04T12:15:21.840Z,1.52
2023-01-04T12:17:30.142Z,1.45
2023-01-04T12:19:33.432Z,1.50
2023-01-04T12:21:36.727Z,1.60
2023-01-04T12:23:39.618Z,1.63
2023-01-04T12:25:46.377Z,1.83
2023-01-04T12:27:49.618Z,1.33
2023-01-04T12:29:59.183Z,1.52
2023-01-04T12:32:48.536Z,2.20
2023-01-04T12:34:54.416Z,1.35
2023-01-04T12:37:04.759Z,1.70
2023-01-04T12:39:41.951Z,1.38
2023-01-04T12:42:13.197Z,1.50
2023-01-04T12:44:51.866Z,1.40
2023-01-04T12:47:12.098Z,1.67
2023-01-04T12:49:51.602Z,1.33
2023-01-04T12:52:38.270Z,1.10
2023-01-04T12:54:54.435Z,1.55
2023-01-04T12:57:24.708Z,1.20
2023-01-04T12:59:33.580Z,1.40
2023-01-04T13:01:36.928Z,1.52
2023-01-04T13:03:48.892Z,1.50
2023-01-04T13:05:57.507Z,1.50
2023-01-04T13:08:03.589Z,1.30
2023-01-04T13:10:21.629Z,1.70
2023-01-04T13:12:47.353Z,1.10
2023-01-04T13:17:12.286Z,1.58
2023-01-04T13:19:22.017Z,1.23
2023-01-04T13:21:30.227Z,1.10
2023-01-04T13:23:33.161Z,1.00
2023-01-04T13:25:37.351Z,1.35
2023-01-04T13:27:55.018Z,1.30
2023-01-04T13:29:57.923Z,1.50
2023-01-04T13:32:02.850Z,1.30
2023-01-04T13:36:12.430Z,1.17
2023-01-04T13:38:17.266Z,1.45
2023-01-04T13:45:18.485Z,1.38
2023-01-04T13:47:15.007Z,1.05
2023-01-04T13:49:18.400Z,1.23
2023-01-04T13:51:29.094Z,1.27
2023-01-04T13:53:35.021Z,1.42
2023-01-04T13:55:39.254Z,1.10
2023-01-04T13:57:53.985Z,1.38
2023-01-04T13:59:56.779Z,1.27
2023-01-04T14:01:59.871Z,1.27
2023-01-04T14:04:05.000Z,1.73
2023-01-04T14:06:30.088Z,1.48
2023-01-04T14:08:36.934Z,1.75
2023-01-04T14:10:44.579Z,1.45
2023-01-04T14:12:48.773Z,1.42
2023-01-04T14:14:56.230Z,1.15
2023-01-04T14:17:20.911Z,1.10
2023-01-04T14:19:42.752Z,1.85
2023-01-04T14:21:45.599Z,1.27
2023-01-04T14:23:48.457Z,1.40
2023-01-04T14:25:56.461Z,1.42
2023-01-04T14:28:37.522Z,1.40
2023-01-04T14:30:47.080Z,1.20
2023-01-04T14:32:55.230Z,1.50
2023-01-04T14:35:11.527Z,1.38
2023-01-04T14:37:14.927Z,1.35
2023-01-04T14:39:36.090Z,1.10
2023-01-04T14:41:41.518Z,1.10
2023-01-04T14:43:46.776Z,1.00
2023-01-04T14:45:50.948Z,1.00
2023-01-04T14:47:53.780Z,1.10
2023-01-04T14:49:56.551Z,0.98
2023-01-04T14:52:00.980Z,2.10
2023-01-04T14:54:03.885Z,0.90
2023-01-04T14:56:07.399Z,1.10
2023-01-04T14:58:10.138Z,1.38
2023-01-04T15:00:19.411Z,1.00
2023-01-04T15:02:26.889Z,1.50
2023-01-04T15:04:30.286Z,1.13
2023-01-04T15:06:33.639Z,1.15
2023-01-04T15:08:36.425Z,0.93
2023-01-04T15:10:39.589Z,1.00
2023-01-04T15:12:42.374Z,0.90
2023-01-04T15:14:45.263Z,1.02
2023-01-04T15:16:48.644Z,1.15
2023-01-04T15:18:52.928Z,0.90
2023-01-04T15:20:55.781Z,1.27
2023-01-04T15:22:58.639Z,1.00
2023-01-04T15:25:01.531Z,0.95
2023-01-04T15:27:04.384Z,1.00
2023-01-04T15:29:08.348Z,1.33
2023-01-04T15:31:13.055Z,1.00
2023-01-04T15:33:16.000Z,1.27
2023-01-04T15:35:20.154Z,1.00
2023-01-04T15:37:24.100Z,1.05
2023-01-04T15:39:27.060Z,1.05
2023-01-04T15:41:47.628Z,0.90
2023-01-04T15:43:50.404Z,1.38
2023-01-04T15:45:53.228Z,1.08
2023-01-04T15:47:57.615Z,1.30
2023-01-04T15:50:00.473Z,1.50
2023-01-04T15:52:04.869Z,0.85
2023-01-04T15:54:08.026Z,0.95
2023-01-04T15:56:13.154Z,1.10
2023-01-04T15:58:15.975Z,1.10
2023-01-04T16:00:19.471Z,1.10
2023-01-04T16:02:22.341Z,1.10
2023-01-04T16:04:25.899Z,1.08
2023-01-04T16:06:28.753Z,0.80
2023-01-04T16:08:33.353Z,1.20
2023-01-04T16:10:36.283Z,1.33
2023-01-04T16:12:48.670Z,1.00
2023-01-04T16:14:55.745Z,1.25
2023-01-04T16:16:58.531Z,1.92
2023-01-04T16:19:01.973Z,1.30
2023-01-04T16:21:07.119Z,1.48
2023-01-04T16:23:09.989Z,1.60
2023-01-04T16:25:14.907Z,1.35
2023-01-04T16:27:17.712Z,1.70
2023-01-04T16:29:20.905Z,1.00
2023-01-04T16:31:24.953Z,1.50
2023-01-04T16:33:28.240Z,1.40
2023-01-04T16:35:31.020Z,1.20
2023-01-04T16:37:33.798Z,1.30
2023-01-04T16:42:04.248Z,1.30
2023-01-04T16:44:13.458Z,1.13
2023-01-04T16:46:21.545Z,1.95
2023-01-04T16:48:24.396Z,1.30
2023-01-04T16:50:27.200Z,1.45
2023-01-04T16:52:30.054Z,1.15
2023-01-04T16:54:33.232Z,0.93
2023-01-04T16:56:36.969Z,1.20
2023-01-04T16:58:43.730Z,1.20
2023-01-04T17:00:46.707Z,2.60
2023-01-04T17:02:50.730Z,1.35
2023-01-04T17:04:56.959Z,1.50
2023-01-04T17:06:59.863Z,1.40
2023-01-04T17:09:03.733Z,1.50
2023-01-04T17:11:56.335Z,1.50
2023-01-04T17:13:31.539Z,2.03
2023-01-04T17:15:44.117Z,2.10
2023-01-04T17:17:47.267Z,1.45
2023-01-04T17:19:50.119Z,1.98
2023-01-04T17:21:53.067Z,2.60
2023-01-04T17:23:58.112Z,2.00
2023-01-04T17:26:03.157Z,2.00
2023-01-04T17:28:05.990Z,1.60
2023-01-04T17:30:10.406Z,1.90
2023-01-04T17:32:14.583Z,1.98
2023-01-04T17:34:22.545Z,1.98
2023-01-04T17:36:26.704Z,1.50
2023-01-04T17:38:29.508Z,1.63
2023-01-04T17:41:16.996Z,1.67
2023-01-04T17:43:19.831Z,2.35
2023-01-04T17:45:22.784Z,1.45
2023-01-04T17:47:27.672Z,1.60
2023-01-04T17:51:36.983Z,1.65
2023-01-04T17:53:40.283Z,1.60
2023-01-04T17:55:43.175Z,1.25
2023-01-04T17:57:46.366Z,1.30
2023-01-04T17:59:49.185Z,1.67
2023-01-04T18:01:52.171Z,1.27
2023-01-04T18:03:57.786Z,1.63
2023-01-04T18:06:24.337Z,1.40
2023-01-04T18:08:23.350Z,1.52
2023-01-04T18:10:40.961Z,1.70
2023-01-04T18:12:49.010Z,1.58
2023-01-04T18:14:51.950Z,1.38
2023-01-04T18:16:58.397Z,1.38
2023-01-04T18:19:03.090Z,1.58
2023-01-04T18:21:27.173Z,1.40
2023-01-04T18:23:30.766Z,1.60
2023-01-04T18:25:33.899Z,1.88
2023-01-04T18:27:36.770Z,1.48
2023-01-04T18:29:39.662Z,1.52
2023-01-04T18:31:42.508Z,1.67
2023-01-04T18:33:52.624Z,1.20
2023-01-04T18:35:56.818Z,1.92
2023-01-04T18:37:59.664Z,1.55
2023-01-04T18:40:03.425Z,1.67
2023-01-04T18:42:06.427Z,1.70
2023-01-04T18:44:32.107Z,1.30
2023-01-04T18:46:33.684Z,1.58
2023-01-04T18:48:38.622Z,1.60
2023-01-04T18:52:45.540Z,1.10
2023-01-04T18:54:48.540Z,1.35
2023-01-04T18:56:58.704Z,1.40
2023-01-04T18:59:05.518Z,1.30
2023-01-04T19:01:09.819Z,1.73
2023-01-04T19:03:18.162Z,1.40
2023-01-04T19:05:22.613Z,1.60
2023-01-04T19:07:25.480Z,14.27
2023-01-04T19:09:30.482Z,3.10
2023-01-04T19:11:33.343Z,1.67
2023-01-04T19:13:37.905Z,1.40
2023-01-04T19:15:47.545Z,1.83
2023-01-04T19:17:50.906Z,1.58
2023-01-04T19:19:53.718Z,1.50
2023-01-04T19:21:56.492Z,1.88
2023-01-04T19:23:59.346Z,1.90
2023-01-04T19:26:07.118Z,1.63
2023-01-04T19:28:11.565Z,1.40
2023-01-04T19:30:14.895Z,1.40
2023-01-04T19:32:21.083Z,1.95
2023-01-04T19:34:23.830Z,1.77
2023-01-04T19:36:26.699Z,1.67
2023-01-04T19:38:29.683Z,2.10
2023-01-04T19:40:32.546Z,2.03
2023-01-04T19:42:36.750Z,1.90
2023-01-04T19:44:39.637Z,1.42
2023-01-04T19:46:42.457Z,1.70
2023-01-04T19:48:45.438Z,1.70
2023-01-04T19:50:48.257Z,2.10
2023-01-04T19:52:51.264Z,2.10
2023-01-04T19:54:54.109Z,1.90
2023-01-04T19:56:56.983Z,1.92
2023-01-04T19:59:01.547Z,3.08
2023-01-04T20:01:04.511Z,3.58
2023-01-04T20:03:07.486Z,11.82
2023-01-04T20:05:10.672Z,2.35
2023-01-04T20:07:13.649Z,1.85
2023-01-04T20:09:18.314Z,1.92
2023-01-04T20:11:21.329Z,1.75
2023-01-04T20:13:24.562Z,2.05
2023-01-04T20:15:28.750Z,1.95
2023-01-04T20:17:31.538Z,1.50
2023-01-04T20:19:34.387Z,1.88
2023-01-04T20:21:37.195Z,2.28
2023-01-04T20:23:40.109Z,1.52
2023-01-04T20:25:44.571Z,1.42
2023-01-04T20:27:47.435Z,1.48
2023-01-04T20:29:50.210Z,1.75
2023-01-04T20:31:54.476Z,3.47
2023-01-04T20:33:57.459Z,1.80
2023-01-04T20:36:06.434Z,1.17
2023-01-04T20:38:09.973Z,3.50
2023-01-04T20:40:13.496Z,1.30
2023-01-04T20:42:34.011Z,1.45
2023-01-04T20:44:38.175Z,1.65
2023-01-04T20:46:47.912Z,1.15
2023-01-04T20:48:52.410Z,1.20
2023-01-04T20:50:55.627Z,0.88
2023-01-04T20:52:58.417Z,1.23
2023-01-04T20:55:01.211Z,1.20
2023-01-04T20:57:04.032Z,0.90
2023-01-04T20:59:06.954Z,0.90
2023-01-04T21:01:09.917Z,1.40
2023-01-04T21:03:13.120Z,1.10
2023-01-04T21:05:17.702Z,1.08
2023-01-04T21:07:20.532Z,1.10
2023-01-04T21:09:23.358Z,1.40
2023-01-04T21:11:26.221Z,1.10
2023-01-04T21:13:29.081Z,1.20
2023-01-04T21:15:32.005Z,1.00
2023-01-04T21:17:34.863Z,1.23
2023-01-04T21:19:37.649Z,1.48
2023-01-04T21:21:41.842Z,1.70
2023-01-04T21:23:45.424Z,1.33
2023-01-04T21:25:49.439Z,1.00
2023-01-04T21:27:52.283Z,1.10
2023-01-04T21:29:55.061Z,1.55
2023-01-04T21:31:58.497Z,1.10
2023-01-04T21:34:01.387Z,1.50
2023-01-04T21:36:10.991Z,2.00
2023-01-04T21:38:15.153Z,0.77
2023-01-04T21:40:18.197Z,0.98
2023-01-04T21:42:23.937Z,0.88
2023-01-04T21:44:26.720Z,1.30
2023-01-04T21:46:29.669Z,1.00
2023-01-04T21:48:32.472Z,1.00
2023-01-04T21:50:35.501Z,1.00
2023-01-04T21:52:38.286Z,1.13
2023-01-04T21:54:42.471Z,0.93
2023-01-04T21:56:46.333Z,1.00
2023-01-04T21:58:49.437Z,0.73
2023-01-04T22:00:52.207Z,0.90
2023-01-04T22:02:55.089Z,1.30
2023-01-04T22:04:57.949Z,1.20
2023-01-04T22:07:00.797Z,1.02
2023-01-04T22:09:04.543Z,1.02
2023-01-04T22:11:09.360Z,0.90
2023-01-04T22:15:15.044Z,0.80
2023-01-04T22:17:17.856Z,0.70
2023-01-04T22:19:21.018Z,0.70
2023-01-04T22:21:24.679Z,0.68
2023-01-04T22:23:27.603Z,0.82
2023-01-04T22:25:30.488Z,0.90
2023-01-04T22:27:34.681Z,1.13
2023-01-04T22:29:38.487Z,0.80
2023-01-04T22:31:41.387Z,0.97
2023-01-04T22:33:44.502Z,1.00
2023-01-04T22:35:47.336Z,0.90
2023-01-04T22:37:50.163Z,0.95
2023-01-04T22:39:52.907Z,1.23
2023-01-04T22:41:55.670Z,1.40
2023-01-04T22:44:03.231Z,1.10
2023-01-04T22:46:07.953Z,0.80
2023-01-04T22:50:14.628Z,0.80
2023-01-04T22:52:17.399Z,1.13
2023-01-04T22:54:20.228Z,0.73
2023-01-04T22:56:23.710Z,0.82
2023-01-04T22:58:26.553Z,1.10
2023-01-04T23:00:30.688Z,1.05
2023-01-04T23:02:33.556Z,0.85
2023-01-04T23:04:36.422Z,1.10
2023-01-04T23:06:39.235Z,0.70
2023-01-04T23:08:42.295Z,1.15
2023-01-04T23:10:45.211Z,0.75
2023-01-04T23:12:48.128Z,0.77
2023-01-04T23:14:51.015Z,0.80
2023-01-04T23:16:55.193Z,0.95
2023-01-04T23:18:58.099Z,0.93
2023-01-04T23:21:01.027Z,0.90
2023-01-04T23:23:03.798Z,0.90
2023-01-04T23:25:07.667Z,0.70
2023-01-04T23:27:10.496Z,1.23
2023-01-04T23:29:13.781Z,1.00
2023-01-04T23:31:18.869Z,0.88
2023-01-04T23:33:23.118Z,0.65
2023-01-04T23:35:25.887Z,0.82
2023-01-04T23:37:28.685Z,0.80
2023-01-04T23:39:31.510Z,0.80
2023-01-04T23:41:47.325Z,0.60
2023-01-04T23:43:50.535Z,0.70
2023-01-04T23:45:53.400Z,0.77
2023-01-04T23:47:56.303Z,0.63
2023-01-04T23:50:00.435Z,0.70
2023-01-04T23:52:04.672Z,0.75
2023-01-04T23:54:08.355Z,0.93
2023-01-04T23:56:15.788Z,0.73
2023-01-04T23:58:18.645Z,0.65
